Weather at Phoenix Sky Harbor International Airport

Public forecast

Using degrees Fahrenheit for public forecast. Weather courtesy of forecast.io.

Current aviation weather report (METAR) for Phoenix Sky Harbor International Airport

Retrieved 2021/04/20 20:51 UTC (56 minutes ago):

KPHX 202051Z VRB03KT 10SM FEW250 32/M07 A2982 RMK AO2 SLP082 T03171067 58026

Aviation forecast (TAF) for Phoenix Sky Harbor International Airport

Retrieved 2021/04/20 18:24 UTC (3 hours ago):

TAF KPHX 201721Z 2018/2124 16007KT P6SM SKC FM202000 25012KT P6SM FEW250 FM210800 10008KT P6SM FEW250 FM211500 13010G15KT P6SM FEW250 FM211600 19014G20KT P6SM FEW250 FM211800 24015G22KT P6SM FEW250 FM212100 23022G32KT P6SM FEW250